Time;durP1;ratioP1;P1;durP2;ratioP2;P2;SDS_P1;SDS_P2;PMS_P1;PMS_P2;Temp;Humidity;BMP_temperature;BMP_pressure;BME280_temperature;BME280_humidity;BME280_pressure;Samples;Min_cycle;Max_cycle;Signal;HPM_P1;HPM_P2
2022/07/10 00:00:14;;;;;;;4.95;3.15;;;;;;;20.90;nan;-24398.03;4980717;28;20204;-59
2022/07/10 00:02:41;;;;;;;5.03;3.15;;;;;;;20.89;nan;-24397.91;4981057;28;20659;-61
2022/07/10 00:05:08;;;;;;;3.60;2.85;;;;;;;20.47;nan;-24386.25;4976662;28;20256;-59
2022/07/10 00:07:34;;;;;;;4.07;3.00;;;;;;;20.68;nan;-24392.19;4980499;28;20204;-59
2022/07/10 00:09:59;;;;;;;5.15;3.10;;;;;;;20.53;nan;-24388.03;4978320;28;20637;-59
2022/07/10 00:12:25;;;;;;;3.65;2.90;;;;;;;20.90;nan;-24398.03;4978738;28;20185;-59
2022/07/10 00:14:50;;;;;;;3.72;2.88;;;;;;;20.42;nan;-24384.84;4976554;28;20249;-58
2022/07/10 00:17:16;;;;;;;3.72;2.90;;;;;;;20.68;nan;-24392.06;4980180;28;20586;-58
2022/07/10 00:19:41;;;;;;;4.72;3.22;;;;;;;20.61;nan;-24390.13;4980262;28;20213;-58
2022/07/10 00:22:07;;;;;;;4.78;3.00;;;;;;;20.61;nan;-24390.25;4976005;28;20605;-58
2022/07/10 00:24:32;;;;;;;4.30;3.17;;;;;;;20.47;nan;-24386.25;4980656;28;20187;-59
2022/07/10 00:26:58;;;;;;;4.30;2.92;;;;;;;20.71;nan;-24392.91;4978904;28;20869;-59
2022/07/10 00:29:24;;;;;;;4.65;3.20;;;;;;;20.31;nan;-24381.78;4979150;28;20176;-59
2022/07/10 00:31:49;;;;;;;4.97;3.10;;;;;;;20.75;nan;-24394.00;4982125;28;20189;-59
2022/07/10 00:34:15;;;;;;;4.72;3.35;;;;;;;20.35;nan;-24382.91;4985308;28;20242;-58
2022/07/10 00:36:40;;;;;;;5.15;3.08;;;;;;;20.23;nan;-24379.84;4979437;28;20762;-58
2022/07/10 00:39:06;;;;;;;5.07;3.28;;;;;;;20.38;nan;-24383.75;4979509;28;20264;-58
2022/07/10 00:41:31;;;;;;;4.07;2.97;;;;;;;20.34;nan;-24382.78;4979788;28;20191;-58
2022/07/10 00:44:00;;;;;;;4.38;2.83;;;;;;;20.71;nan;-24393.03;4977443;28;20260;-58
2022/07/10 00:46:27;;;;;;;4.78;3.05;;;;;;;20.37;nan;-24383.59;4980433;28;20181;-58
2022/07/10 00:48:53;;;;;;;5.75;3.20;;;;;;;20.41;nan;-24384.72;4978456;28;20246;-59
2022/07/10 00:51:22;;;;;;;4.88;3.42;;;;;;;20.69;nan;-24392.34;4980845;28;20185;-58
2022/07/10 00:53:48;;;;;;;4.20;3.08;;;;;;;20.65;nan;-24391.22;4982019;28;20240;-58
2022/07/10 00:56:22;;;;;;;4.70;3.00;;;;;;;20.76;nan;-24394.28;4978208;28;20174;-58
2022/07/10 00:58:50;;;;;;;4.55;2.83;;;;;;;20.71;nan;-24393.03;4979181;28;20198;-58
2022/07/10 01:01:16;;;;;;;4.18;2.80;;;;;;;20.76;nan;-24394.16;4981729;28;20573;-59
2022/07/10 01:03:43;;;;;;;4.75;3.40;;;;;;;20.73;nan;-24393.59;4977567;28;20244;-59
2022/07/10 01:06:09;;;;;;;4.47;2.70;;;;;;;20.53;nan;-24387.91;4977630;28;20201;-58
2022/07/10 01:08:35;;;;;;;8.00;3.15;;;;;;;20.83;nan;-24396.09;4977581;28;20177;-58
2022/07/10 01:11:01;;;;;;;5.18;3.15;;;;;;;20.71;nan;-24392.91;4977351;28;20193;-59
2022/07/10 01:13:27;;;;;;;4.32;3.05;;;;;;;20.53;nan;-24387.91;4975376;28;20196;-58
2022/07/10 01:15:53;;;;;;;3.47;2.55;;;;;;;20.84;nan;-24396.38;4979483;28;20186;-58
2022/07/10 01:18:18;;;;;;;4.78;3.20;;;;;;;20.60;nan;-24389.97;4977224;28;20217;-59
2022/07/10 01:20:44;;;;;;;4.90;3.22;;;;;;;21.05;nan;-24402.19;4981125;28;20177;-58
2022/07/10 01:23:10;;;;;;;4.50;3.20;;;;;;;21.04;nan;-24402.06;4978238;28;20208;-58
2022/07/10 01:25:36;;;;;;;5.50;3.45;;;;;;;20.91;nan;-24398.44;4977241;28;20641;-59
2022/07/10 01:28:01;;;;;;;4.88;3.55;;;;;;;21.05;nan;-24402.19;4981652;28;20559;-58
2022/07/10 01:30:27;;;;;;;4.13;3.28;;;;;;;20.88;nan;-24397.47;4981974;28;20612;-59
2022/07/10 01:32:53;;;;;;;4.70;3.40;;;;;;;20.86;nan;-24396.91;4978531;28;20225;-58
2022/07/10 01:35:19;;;;;;;4.22;3.03;;;;;;;20.70;nan;-24392.75;4980478;28;20264;-59
2022/07/10 01:37:44;;;;;;;4.97;3.58;;;;;;;20.82;nan;-24395.94;4975891;28;20773;-59
2022/07/10 01:40:11;;;;;;;4.82;3.38;;;;;;;21.02;nan;-24401.34;4982284;28;20660;-59
2022/07/10 01:42:40;;;;;;;4.78;3.60;;;;;;;20.65;nan;-24391.22;4982766;28;20628;-58
2022/07/10 01:45:09;;;;;;;6.80;3.50;;;;;;;20.61;nan;-24390.25;4981367;28;20554;-59
2022/07/10 01:47:35;;;;;;;6.20;3.72;;;;;;;20.89;nan;-24397.91;4980022;28;21752;-57
2022/07/10 01:50:00;;;;;;;4.93;3.10;;;;;;;20.67;nan;-24391.78;4978031;28;20190;-58
2022/07/10 01:52:26;;;;;;;5.20;3.47;;;;;;;20.77;nan;-24394.41;4982065;28;20629;-58
2022/07/10 01:54:51;;;;;;;4.97;3.63;;;;;;;20.97;nan;-24399.97;4978639;28;20611;-58
2022/07/10 01:57:17;;;;;;;5.53;3.90;;;;;;;20.87;nan;-24397.19;4982787;28;20200;-58
2022/07/10 01:59:43;;;;;;;6.32;4.00;;;;;;;20.52;nan;-24387.75;4978196;28;20644;-58
2022/07/10 02:02:09;;;;;;;4.32;3.40;;;;;;;20.46;nan;-24385.97;4979234;28;20570;-57
2022/07/10 02:04:40;;;;;;;4.75;3.25;;;;;;;20.76;nan;-24394.28;4980802;28;20189;-58
2022/07/10 02:07:09;;;;;;;4.45;3.30;;;;;;;20.62;nan;-24390.41;4981176;28;20185;-58
2022/07/10 02:09:35;;;;;;;4.30;3.20;;;;;;;20.40;nan;-24384.28;4976575;28;20189;-60
2022/07/10 02:12:00;;;;;;;5.60;3.42;;;;;;;20.43;nan;-24385.28;4995766;28;20648;-59
2022/07/10 02:14:26;;;;;;;4.35;3.20;;;;;;;20.62;nan;-24390.53;4977553;28;20642;-59
2022/07/10 02:16:51;;;;;;;5.75;3.15;;;;;;;20.46;nan;-24385.97;4980201;28;20196;-59
2022/07/10 02:19:17;;;;;;;6.20;3.80;;;;;;;20.49;nan;-24386.78;4979060;28;20181;-58
2022/07/10 02:21:42;;;;;;;4.50;3.20;;;;;;;20.50;nan;-24387.22;4975948;28;20581;-58
2022/07/10 02:24:08;;;;;;;8.45;3.45;;;;;;;20.44;nan;-24385.41;4979169;28;20216;-59
2022/07/10 02:26:33;;;;;;;5.32;3.65;;;;;;;20.41;nan;-24384.72;4979679;28;20556;-59
2022/07/10 02:28:58;;;;;;;8.05;3.53;;;;;;;20.08;nan;-24375.69;4981992;28;20681;-59
2022/07/10 02:31:24;;;;;;;5.72;3.20;;;;;;;20.05;nan;-24374.72;4979004;28;20177;-59
2022/07/10 02:33:49;;;;;;;5.25;3.42;;;;;;;19.85;nan;-24369.44;4978316;28;20188;-59
2022/07/10 02:36:15;;;;;;;5.43;3.50;;;;;;;20.15;nan;-24377.63;4982689;28;20315;-59
2022/07/10 02:38:40;;;;;;;4.75;3.33;;;;;;;19.79;nan;-24367.63;4980369;28;20723;-58
2022/07/10 02:41:06;;;;;;;5.53;3.60;;;;;;;20.19;nan;-24378.59;4979416;28;20180;-58
2022/07/10 02:43:31;;;;;;;4.68;3.72;;;;;;;20.12;nan;-24376.66;4976853;28;20191;-59
2022/07/10 02:45:57;;;;;;;5.40;3.60;;;;;;;19.72;nan;-24365.69;4980532;28;20212;-59
2022/07/10 02:48:22;;;;;;;4.63;3.33;;;;;;;19.96;nan;-24372.22;4977894;28;20180;-59
2022/07/10 02:50:48;;;;;;;5.15;3.50;;;;;;;19.70;nan;-24365.13;4979085;28;20188;-57
2022/07/10 02:53:13;;;;;;;5.53;3.47;;;;;;;20.02;nan;-24373.88;4980545;28;20181;-58
2022/07/10 02:55:39;;;;;;;4.15;3.20;;;;;;;19.43;nan;-24357.75;4978612;28;20234;-59
2022/07/10 02:58:04;;;;;;;6.03;3.75;;;;;;;19.49;nan;-24359.41;4978524;28;20233;-58
2022/07/10 03:00:29;;;;;;;5.07;3.42;;;;;;;19.85;nan;-24369.28;4978491;28;20192;-58
2022/07/10 03:02:55;;;;;;;4.85;3.42;;;;;;;19.58;nan;-24361.78;4978451;28;20626;-58
2022/07/10 03:05:21;;;;;;;5.35;3.65;;;;;;;19.93;nan;-24371.38;4977985;28;20254;-57
2022/07/10 03:07:47;;;;;;;6.25;3.50;;;;;;;19.92;nan;-24371.22;4978813;28;20264;-58
2022/07/10 03:10:12;;;;;;;4.50;3.15;;;;;;;19.63;nan;-24363.31;4979945;28;20227;-58
2022/07/10 03:12:38;;;;;;;5.45;3.70;;;;;;;19.57;nan;-24361.66;4978060;28;20203;-58
2022/07/10 03:15:05;;;;;;;4.80;3.65;;;;;;;19.97;nan;-24372.63;4979863;28;20566;-58
2022/07/10 03:17:31;;;;;;;4.50;3.20;;;;;;;20.01;nan;-24373.72;4975909;28;20208;-58
2022/07/10 03:19:56;;;;;;;5.43;3.58;;;;;;;19.65;nan;-24363.88;4977805;28;20207;-59
2022/07/10 03:22:21;;;;;;;6.15;3.80;;;;;;;19.96;nan;-24372.34;4977176;28;20622;-58
2022/07/10 03:24:47;;;;;;;6.22;3.67;;;;;;;19.54;nan;-24360.81;4979626;28;20182;-58
2022/07/10 03:27:13;;;;;;;5.47;3.55;;;;;;;19.56;nan;-24361.38;4977823;28;20189;-59
2022/07/10 03:29:40;;;;;;;5.55;3.55;;;;;;;19.99;nan;-24373.19;4977294;28;20699;-59
2022/07/10 03:32:06;;;;;;;6.57;3.85;;;;;;;19.96;nan;-24372.22;4994893;28;20185;-58
2022/07/10 03:34:33;;;;;;;6.07;3.80;;;;;;;19.77;nan;-24367.06;4977715;28;20289;-58
2022/07/10 03:37:01;;;;;;;5.38;3.63;;;;;;;20.01;nan;-24373.72;4978220;28;20224;-59
2022/07/10 03:39:27;;;;;;;5.78;3.90;;;;;;;19.74;nan;-24366.38;4976988;28;20193;-59
2022/07/10 03:41:52;;;;;;;5.45;3.80;;;;;;;19.72;nan;-24365.69;4978140;28;20864;-59
2022/07/10 03:44:18;;;;;;;5.32;3.85;;;;;;;19.73;nan;-24365.94;4979905;28;20180;-58
2022/07/10 03:46:43;;;;;;;6.53;4.25;;;;;;;19.83;nan;-24368.72;4977217;28;20178;-58
2022/07/10 03:49:08;;;;;;;5.47;3.55;;;;;;;19.81;nan;-24368.19;4979739;28;20192;-58
2022/07/10 03:51:34;;;;;;;5.05;3.83;;;;;;;19.80;nan;-24367.91;4975246;28;20189;-58
2022/07/10 03:53:59;;;;;;;6.25;4.22;;;;;;;19.81;nan;-24368.19;4978141;28;20181;-58
2022/07/10 03:59:09;;;;;;;5.70;3.88;;;;;;;19.98;nan;-24372.75;4978324;28;20279;-58
2022/07/10 04:01:34;;;;;;;7.18;5.00;;;;;;;20.42;nan;-24385.00;4977012;28;20209;-57
2022/07/10 04:04:00;;;;;;;6.13;3.80;;;;;;;20.34;nan;-24382.63;4975627;28;20578;-58
2022/07/10 04:06:25;;;;;;;5.82;3.92;;;;;;;20.50;nan;-24387.06;4977833;28;20176;-58
2022/07/10 04:08:51;;;;;;;5.10;3.55;;;;;;;20.34;nan;-24382.63;4976813;28;20177;-58
2022/07/10 04:11:17;;;;;;;6.72;4.25;;;;;;;20.19;nan;-24378.75;4979248;28;20173;-58
2022/07/10 04:13:42;;;;;;;5.68;3.70;;;;;;;20.63;nan;-24390.81;4977358;28;20237;-58
2022/07/10 04:16:12;;;;;;;6.40;4.22;;;;;;;20.43;nan;-24385.13;4978516;28;20177;-58
2022/07/10 04:18:39;;;;;;;7.28;4.35;;;;;;;20.46;nan;-24386.09;4973244;28;20778;-58
2022/07/10 04:21:04;;;;;;;6.97;3.83;;;;;;;20.56;nan;-24388.75;4978902;28;20183;-58
2022/07/10 04:23:30;;;;;;;6.20;4.15;;;;;;;20.76;nan;-24394.28;4976739;28;20174;-58
2022/07/10 04:25:56;;;;;;;5.95;3.97;;;;;;;21.34;nan;-24410.09;4978487;28;20182;-58
2022/07/10 04:28:22;;;;;;;5.72;3.83;;;;;;;22.14;nan;-24432.00;4981213;28;20184;-58
2022/07/10 04:30:47;;;;;;;6.07;4.25;;;;;;;22.96;nan;-24454.41;5009442;28;20184;-58
2022/07/10 04:33:13;;;;;;;5.65;3.78;;;;;;;23.55;nan;-24470.69;4982607;28;20235;-59
2022/07/10 04:35:38;;;;;;;7.30;3.95;;;;;;;24.38;nan;-24493.31;4980486;28;20304;-58
2022/07/10 04:38:03;;;;;;;5.47;3.80;;;;;;;23.63;nan;-24472.78;4978074;28;20264;-58
2022/07/10 04:40:29;;;;;;;5.78;3.70;;;;;;;23.83;nan;-24478.16;4977481;28;20607;-57
2022/07/10 04:42:54;;;;;;;5.32;3.88;;;;;;;24.84;nan;-24505.72;4977917;28;20224;-58
2022/07/10 04:45:20;;;;;;;6.40;3.65;;;;;;;24.15;nan;-24486.97;4979899;28;20236;-57
2022/07/10 04:47:46;;;;;;;5.97;3.95;;;;;;;24.32;nan;-24491.53;4976512;28;20565;-58
2022/07/10 04:50:11;;;;;;;7.60;3.45;;;;;;;24.34;nan;-24492.09;4982062;28;20264;-57
2022/07/10 04:52:37;;;;;;;5.20;3.60;;;;;;;24.11;nan;-24485.88;4977525;28;20173;-59
2022/07/10 04:55:02;;;;;;;5.15;3.75;;;;;;;23.85;nan;-24478.84;4981510;28;20747;-61
2022/07/10 04:57:28;;;;;;;5.20;3.88;;;;;;;23.63;nan;-24472.91;4977875;28;20212;-59
2022/07/10 04:59:53;;;;;;;4.85;3.75;;;;;;;23.12;nan;-24458.81;4979188;28;20197;-59
2022/07/10 05:02:19;;;;;;;5.60;3.88;;;;;;;22.70;nan;-24447.50;4978394;28;20275;-58
2022/07/10 05:04:44;;;;;;;5.28;3.85;;;;;;;22.45;nan;-24440.69;4979993;28;20178;-59
2022/07/10 05:07:10;;;;;;;6.68;4.35;;;;;;;21.96;nan;-24427.16;4980501;28;20215;-58
2022/07/10 05:09:36;;;;;;;6.28;4.28;;;;;;;21.97;nan;-24427.41;4979657;28;20179;-58
2022/07/10 05:12:01;;;;;;;6.00;4.15;;;;;;;23.07;nan;-24457.56;4981758;28;20184;-59
2022/07/10 05:14:27;;;;;;;6.88;4.15;;;;;;;23.84;nan;-24478.56;4978946;28;20181;-58
2022/07/10 05:16:52;;;;;;;6.38;4.25;;;;;;;24.32;nan;-24491.69;4979184;28;20189;-58
2022/07/10 05:19:18;;;;;;;7.72;4.45;;;;;;;24.53;nan;-24497.31;4980293;28;20185;-59
2022/07/10 05:21:43;;;;;;;6.18;4.10;;;;;;;25.07;nan;-24512.06;4976456;28;20667;-59
2022/07/10 05:24:09;;;;;;;7.05;4.00;;;;;;;24.83;nan;-24505.44;4975530;28;20284;-59
2022/07/10 05:26:36;;;;;;;5.78;4.13;;;;;;;24.91;nan;-24507.78;4976723;28;20185;-58
2022/07/10 05:29:01;;;;;;;6.43;4.07;;;;;;;25.79;nan;-24531.75;4977694;28;20177;-59
2022/07/10 05:31:27;;;;;;;5.40;4.00;;;;;;;25.41;nan;-24521.41;4976469;28;20299;-58
2022/07/10 05:33:52;;;;;;;5.65;4.03;;;;;;;24.73;nan;-24502.69;4977218;28;20231;-58
2022/07/10 05:36:18;;;;;;;6.30;4.47;;;;;;;24.83;nan;-24505.44;4977130;28;20612;-59
2022/07/10 05:38:43;;;;;;;7.57;4.75;;;;;;;25.66;nan;-24528.03;4977189;28;20212;-58
2022/07/10 05:41:09;;;;;;;6.72;4.55;;;;;;;25.70;nan;-24529.25;4978094;28;21427;-59
2022/07/10 05:43:34;;;;;;;6.68;4.13;;;;;;;25.86;nan;-24533.53;4976956;28;20181;-59
2022/07/10 05:46:00;;;;;;;6.80;4.10;;;;;;;25.29;nan;-24518.13;4977223;28;20216;-59
2022/07/10 05:48:25;;;;;;;5.72;4.10;;;;;;;24.64;nan;-24500.50;4979037;28;20287;-58
2022/07/10 05:50:52;;;;;;;5.80;4.22;;;;;;;25.06;nan;-24511.78;4978064;28;20177;-60
2022/07/10 05:53:19;;;;;;;6.07;3.97;;;;;;;25.12;nan;-24513.31;4976856;28;20197;-58
2022/07/10 05:55:47;;;;;;;5.35;4.30;;;;;;;24.51;nan;-24496.91;4976426;28;20187;-59
2022/07/10 05:58:12;;;;;;;6.07;4.18;;;;;;;24.60;nan;-24499.38;4977782;28;20207;-59
2022/07/10 06:00:38;;;;;;;5.93;3.97;;;;;;;24.30;nan;-24490.97;4977562;28;20182;-59
2022/07/10 06:03:03;;;;;;;6.30;4.07;;;;;;;23.99;nan;-24482.72;4976982;28;20184;-60
2022/07/10 06:05:29;;;;;;;5.45;3.90;;;;;;;24.39;nan;-24493.59;4977115;28;20657;-60
2022/07/10 06:07:54;;;;;;;6.10;4.20;;;;;;;24.24;nan;-24489.31;4977474;28;20213;-58
2022/07/10 06:10:20;;;;;;;6.57;4.35;;;;;;;24.19;nan;-24488.09;4976371;28;20181;-60
2022/07/10 06:12:45;;;;;;;5.80;4.05;;;;;;;24.75;nan;-24503.25;4978261;28;20193;-59
2022/07/10 06:15:11;;;;;;;5.88;4.20;;;;;;;24.49;nan;-24496.22;4978620;28;20185;-59
2022/07/10 06:17:36;;;;;;;5.55;4.30;;;;;;;24.35;nan;-24492.50;4976956;28;20213;-59
2022/07/10 06:20:02;;;;;;;8.32;4.43;;;;;;;24.06;nan;-24484.50;4976030;28;20181;-59
2022/07/10 06:22:30;;;;;;;5.78;4.18;;;;;;;24.30;nan;-24491.13;4977797;28;20181;-60
2022/07/10 06:25:06;;;;;;;6.28;3.75;;;;;;;24.37;nan;-24493.03;4977044;28;20177;-59
2022/07/10 06:27:33;;;;;;;6.72;4.05;;;;;;;24.20;nan;-24488.38;4976135;28;20199;-59
2022/07/10 06:29:59;;;;;;;7.18;4.53;;;;;;;24.04;nan;-24483.94;4976549;28;20185;-59
2022/07/10 06:32:25;;;;;;;5.28;3.88;;;;;;;24.82;nan;-24505.31;4978000;28;20188;-59
2022/07/10 06:34:52;;;;;;;5.97;4.18;;;;;;;24.59;nan;-24498.97;4978435;28;20189;-59
2022/07/10 06:37:18;;;;;;;9.75;4.22;;;;;;;24.74;nan;-24503.09;4976180;28;20251;-59
2022/07/10 06:39:45;;;;;;;5.75;4.05;;;;;;;24.69;nan;-24501.59;4975342;28;20178;-59
2022/07/10 06:42:11;;;;;;;5.18;3.78;;;;;;;24.41;nan;-24494.00;4979711;28;20557;-60
2022/07/10 06:44:42;;;;;;;6.18;4.18;;;;;;;24.59;nan;-24498.97;4977494;28;20704;-60
2022/07/10 06:49:58;;;;;;;5.80;3.65;;;;;;;24.20;nan;-24488.38;4971091;28;20196;-60
2022/07/10 06:52:24;;;;;;;7.47;4.50;;;;;;;24.32;nan;-24491.53;4977555;28;20657;-58
2022/07/10 06:54:50;;;;;;;6.50;4.38;;;;;;;25.07;nan;-24512.19;4975212;28;20189;-58
2022/07/10 06:57:17;;;;;;;6.07;3.75;;;;;;;25.36;nan;-24520.03;4974954;28;20230;-59
2022/07/10 06:59:43;;;;;;;5.90;4.25;;;;;;;25.50;nan;-24523.75;4974880;28;20636;-58
2022/07/10 07:02:08;;;;;;;5.65;3.90;;;;;;;25.35;nan;-24519.63;4979349;28;20262;-59
2022/07/10 07:04:34;;;;;;;5.55;4.07;;;;;;;25.67;nan;-24528.31;4974963;28;20282;-59
2022/07/10 07:06:59;;;;;;;6.68;4.03;;;;;;;25.76;nan;-24530.78;4977941;28;20676;-59
2022/07/10 07:09:24;;;;;;;5.70;4.00;;;;;;;24.79;nan;-24504.47;4976077;28;20298;-59
2022/07/10 07:11:50;;;;;;;6.95;4.35;;;;;;;26.02;nan;-24537.94;4977040;28;20185;-59
2022/07/10 07:14:15;;;;;;;5.78;4.25;;;;;;;25.91;nan;-24535.03;4973989;28;20759;-59
2022/07/10 07:16:57;;;;;;;8.80;5.97;;;;;;;25.81;nan;-24532.16;4973121;28;20187;-59
2022/07/10 07:19:30;;;;;;;6.78;4.50;;;;;;;25.76;nan;-24530.78;4979088;28;20199;-59
2022/07/10 07:24:43;;;;;;;6.22;4.43;;;;;;;25.87;nan;-24533.81;4972762;28;20188;-61
2022/07/10 07:27:10;;;;;;;5.78;4.15;;;;;;;25.87;nan;-24533.81;4974745;28;20197;-60
2022/07/10 07:29:36;;;;;;;5.03;3.83;;;;;;;26.19;nan;-24542.47;4972195;28;20180;-61
2022/07/10 07:32:02;;;;;;;8.10;5.15;;;;;;;26.18;nan;-24542.31;4975892;28;20223;-59
2022/07/10 07:34:27;;;;;;;6.85;4.45;;;;;;;26.18;nan;-24542.31;4977720;28;20216;-59
2022/07/10 07:36:52;;;;;;;7.28;4.00;;;;;;;25.62;nan;-24526.94;4974744;28;20356;-59
2022/07/10 07:39:18;;;;;;;6.40;4.25;;;;;;;25.76;nan;-24530.78;4977219;28;20188;-59
2022/07/10 07:41:43;;;;;;;5.60;4.13;;;;;;;25.78;nan;-24531.31;4976926;28;20212;-60
2022/07/10 07:44:09;;;;;;;6.15;4.03;;;;;;;25.42;nan;-24521.69;4976629;28;20189;-59
2022/07/10 07:46:34;;;;;;;6.40;4.60;;;;;;;25.54;nan;-24524.88;4972417;28;20178;-59
2022/07/10 07:49:00;;;;;;;6.70;4.22;;;;;;;26.03;nan;-24538.06;4977383;28;20177;-61
2022/07/10 07:51:25;;;;;;;6.05;3.90;;;;;;;;;;4976337;28;20189;-60
2022/07/10 07:53:51;;;;;;;6.45;4.10;;;;;;;26.14;nan;-24541.09;4976556;28;20671;-59
2022/07/10 07:56:16;;;;;;;5.15;3.72;;;;;;;26.53;nan;-24551.81;4974017;28;20525;-59
2022/07/10 07:58:42;;;;;;;5.82;4.53;;;;;;;27.13;nan;-24568.00;4973935;28;20692;-59
2022/07/10 08:01:07;;;;;;;6.57;4.22;;;;;;;27.33;nan;-24573.34;4979118;28;20183;-60
2022/07/10 08:03:33;;;;;;;4.93;3.65;;;;;;;26.87;nan;-24560.88;4976334;28;20184;-60
2022/07/10 08:05:58;;;;;;;5.95;4.07;;;;;;;26.85;nan;-24560.31;4981189;28;20278;-59
2022/07/10 08:08:24;;;;;;;5.70;3.90;;;;;;;26.74;nan;-24557.44;4981885;28;20208;-58
2022/07/10 08:10:49;;;;;;;5.32;3.75;;;;;;;27.03;nan;-24565.38;4979311;28;20185;-59
2022/07/10 08:13:14;;;;;;;6.18;3.70;;;;;;;26.98;nan;-24564.00;4982298;28;20695;-59
2022/07/10 08:15:40;;;;;;;5.38;3.88;;;;;;;26.71;nan;-24556.59;4977222;28;20663;-60
2022/07/10 08:18:07;;;;;;;5.55;4.18;;;;;;;26.54;nan;-24551.94;4978400;28;20656;-59
2022/07/10 08:20:33;;;;;;;6.15;4.60;;;;;;;26.78;nan;-24558.53;4978231;28;20734;-58
2022/07/10 08:22:58;;;;;;;6.30;4.22;;;;;;;27.08;nan;-24566.75;4976018;28;20189;-60
2022/07/10 08:25:24;;;;;;;5.28;4.18;;;;;;;27.21;nan;-24570.31;4980267;28;20395;-59
2022/07/10 08:27:50;;;;;;;5.57;4.00;;;;;;;27.29;nan;-24572.38;4977404;28;20185;-59
2022/07/10 08:30:16;;;;;;;5.43;4.00;;;;;;;27.32;nan;-24573.06;4979663;28;20177;-59
2022/07/10 08:32:42;;;;;;;5.75;3.72;;;;;;;27.47;nan;-24577.31;4977632;28;20185;-58
2022/07/10 08:35:10;;;;;;;5.70;4.07;;;;;;;27.47;nan;-24577.19;4979986;28;20178;-59
2022/07/10 08:37:40;;;;;;;5.10;3.65;;;;;;;27.20;nan;-24569.91;4975225;28;20243;-59
2022/07/10 08:40:12;;;;;;;4.95;3.45;;;;;;;27.00;nan;-24564.44;4975149;28;20184;-59
2022/07/10 08:42:38;;;;;;;5.80;4.43;;;;;;;27.10;nan;-24567.31;4976188;28;20185;-58
2022/07/10 08:45:04;;;;;;;5.43;4.00;;;;;;;27.20;nan;-24570.06;4978142;28;20177;-62
2022/07/10 08:47:31;;;;;;;5.95;4.07;;;;;;;27.31;nan;-24572.78;4980339;28;20205;-60
2022/07/10 08:49:57;;;;;;;5.60;4.10;;;;;;;25.33;nan;-24519.22;5009587;28;20239;-60
2022/07/10 08:52:28;;;;;;;5.93;3.67;;;;;;;26.80;nan;-24559.06;4979544;28;20185;-59
2022/07/10 08:54:55;;;;;;;5.93;4.05;;;;;;;26.64;nan;-24554.81;4977701;28;20189;-61
2022/07/10 08:57:23;;;;;;;5.88;4.13;;;;;;;26.76;nan;-24557.97;4977672;28;20213;-61
2022/07/10 08:59:48;;;;;;;6.35;4.40;;;;;;;26.61;nan;-24553.84;4979654;28;20182;-62
2022/07/10 09:02:14;;;;;;;6.88;3.78;;;;;;;26.72;nan;-24556.88;4979736;28;20185;-59
2022/07/10 09:04:39;;;;;;;6.30;4.30;;;;;;;26.81;nan;-24559.50;4981825;28;20280;-58
2022/07/10 09:07:05;;;;;;;5.45;4.03;;;;;;;26.49;nan;-24550.56;4981829;28;20181;-59
2022/07/10 09:09:30;;;;;;;6.57;4.50;;;;;;;26.71;nan;-24556.59;4979824;28;20185;-59
2022/07/10 09:11:57;;;;;;;6.10;3.97;;;;;;;26.89;nan;-24561.41;4979869;28;20653;-60
2022/07/10 09:14:25;;;;;;;7.03;4.30;;;;;;;26.64;nan;-24554.69;4978818;28;20229;-60
2022/07/10 09:16:50;;;;;;;6.13;4.03;;;;;;;26.35;nan;-24547.00;4977419;28;20201;-59
2022/07/10 09:19:27;;;;;;;5.70;4.07;;;;;;;25.98;nan;-24536.81;4980878;28;20356;-59
2022/07/10 09:22:08;;;;;;;11.27;5.70;;;;;;;25.79;nan;-24531.59;4980746;28;20297;-59
2022/07/10 09:24:43;;;;;;;7.15;4.20;;;;;;;26.19;nan;-24542.59;4980845;28;20267;-60
2022/07/10 09:27:10;;;;;;;9.63;3.88;;;;;;;26.15;nan;-24541.50;4979374;28;20184;-58
2022/07/10 09:29:57;;;;;;;7.25;4.10;;;;;;;25.99;nan;-24536.97;4979466;28;20195;-59
2022/07/10 09:32:23;;;;;;;5.80;4.22;;;;;;;25.82;nan;-24532.56;4980813;28;20682;-59
2022/07/10 09:37:39;;;;;;;6.10;4.45;;;;;;;25.44;nan;-24522.09;4977063;28;20341;-59
2022/07/10 09:40:06;;;;;;;6.90;4.53;;;;;;;25.60;nan;-24526.38;4978556;28;20177;-58
2022/07/10 09:42:36;;;;;;;6.25;4.72;;;;;;;25.85;nan;-24533.25;4977592;28;20208;-59
2022/07/10 09:45:13;;;;;;;6.78;4.45;;;;;;;26.17;nan;-24542.03;4976707;28;20185;-59
2022/07/10 09:47:40;;;;;;;6.97;4.97;;;;;;;26.23;nan;-24543.56;4978971;28;20181;-60
2022/07/10 09:50:36;;;;;;;6.68;4.68;;;;;;;26.32;nan;-24546.03;4978947;28;20228;-59
2022/07/10 09:53:07;;;;;;;6.55;4.32;;;;;;;26.40;nan;-24548.09;4983135;28;20196;-59
2022/07/10 09:55:36;;;;;;;7.38;4.60;;;;;;;24.36;nan;-24492.63;4979375;28;20193;-60
2022/07/10 09:58:04;;;;;;;6.03;4.10;;;;;;;25.90;nan;-24534.75;4978747;28;20205;-58
2022/07/10 10:00:32;;;;;;;5.60;4.10;;;;;;;26.36;nan;-24547.13;4976753;28;20193;-60
2022/07/10 10:03:03;;;;;;;9.85;6.18;;;;;;;26.41;nan;-24548.38;4989961;28;20960;-58
2022/07/10 10:05:49;;;;;;;7.10;4.93;;;;;;;26.42;nan;-24548.78;4979537;28;20671;-59
2022/07/10 10:08:24;;;;;;;6.88;4.43;;;;;;;26.72;nan;-24556.88;4978768;28;20184;-60
2022/07/10 10:10:51;;;;;;;9.35;4.78;;;;;;;27.04;nan;-24565.66;4976632;28;20192;-59
2022/07/10 10:13:27;;;;;;;6.03;3.97;;;;;;;26.52;nan;-24551.38;4978789;28;20177;-59
2022/07/10 10:15:53;;;;;;;5.60;3.95;;;;;;;26.49;nan;-24550.56;4978549;28;20185;-59
2022/07/10 10:18:21;;;;;;;6.70;4.43;;;;;;;27.03;nan;-24565.25;4978467;28;20205;-59
2022/07/10 10:20:48;;;;;;;12.45;4.22;;;;;;;27.37;nan;-24574.56;4976204;28;20190;-60
2022/07/10 10:23:20;;;;;;;6.53;4.35;;;;;;;27.71;nan;-24583.75;4977550;28;20193;-59
2022/07/10 10:25:50;;;;;;;6.32;4.38;;;;;;;27.67;nan;-24582.81;4978738;28;20280;-59
2022/07/10 10:28:17;;;;;;;5.38;3.90;;;;;;;25.87;nan;-24533.94;4980550;28;20577;-60
2022/07/10 10:30:45;;;;;;;5.85;3.90;;;;;;;28.29;nan;-24599.50;4975746;28;20185;-59
2022/07/10 10:33:32;;;;;;;6.13;4.15;;;;;;;27.91;nan;-24589.25;4980315;28;20200;-59
2022/07/10 10:36:02;;;;;;;5.45;4.10;;;;;;;27.83;nan;-24587.03;4980963;28;20232;-60
2022/07/10 10:38:49;;;;;;;6.55;4.40;;;;;;;27.19;nan;-24569.63;4976763;28;20589;-58
2022/07/10 10:41:31;;;;;;;6.50;4.20;;;;;;;27.93;nan;-24589.78;4976129;28;20648;-59
2022/07/10 10:44:09;;;;;;;4.93;3.63;;;;;;;28.83;nan;-24614.13;4976181;28;20189;-59
2022/07/10 10:47:05;;;;;;;5.22;3.58;;;;;;;28.75;nan;-24611.81;4987770;28;20187;-60
2022/07/10 10:49:50;;;;;;;4.35;3.45;;;;;;;28.63;nan;-24608.53;4977540;28;20229;-59
2022/07/10 10:52:16;;;;;;;5.38;3.80;;;;;;;28.73;nan;-24611.28;4976717;28;20267;-60
2022/07/10 10:55:01;;;;;;;5.18;3.97;;;;;;;29.04;nan;-24619.75;4977632;28;20272;-59
2022/07/10 10:57:36;;;;;;;4.18;3.20;;;;;;;28.94;nan;-24617.16;4976717;28;20228;-59
2022/07/10 11:00:07;;;;;;;4.93;3.40;;;;;;;28.26;nan;-24598.53;4979045;28;20675;-60
2022/07/10 11:02:34;;;;;;;5.35;3.53;;;;;;;28.16;nan;-24595.94;4975763;28;20173;-60
2022/07/10 11:05:20;;;;;;;5.68;3.90;;;;;;;28.60;nan;-24607.72;4974377;28;20191;-60
2022/07/10 11:07:59;;;;;;;5.10;3.78;;;;;;;28.39;nan;-24602.09;4978313;28;20224;-59
2022/07/10 11:10:27;;;;;;;5.60;3.60;;;;;;;28.29;nan;-24599.38;4975635;28;20227;-59
2022/07/10 11:13:00;;;;;;;5.00;3.60;;;;;;;28.50;nan;-24605.25;4977514;28;20185;-59
2022/07/10 11:15:26;;;;;;;7.18;3.55;;;;;;;28.53;nan;-24605.94;4979247;28;20636;-59
2022/07/10 11:17:53;;;;;;;5.18;3.50;;;;;;;28.98;nan;-24618.09;4975503;28;20735;-60
2022/07/10 11:20:20;;;;;;;5.55;3.75;;;;;;;29.37;nan;-24628.63;4975260;28;20188;-58
2022/07/10 11:23:05;;;;;;;5.13;3.97;;;;;;;29.92;nan;-24643.38;4973260;28;20172;-59
2022/07/10 11:25:41;;;;;;;7.20;3.97;;;;;;;30.09;nan;-24648.00;4981238;28;20188;-59
2022/07/10 11:28:12;;;;;;;4.40;3.42;;;;;;;30.20;nan;-24651.13;4976944;28;20188;-59
2022/07/10 11:30:44;;;;;;;4.35;3.47;;;;;;;30.18;nan;-24650.44;4975396;28;20180;-59
2022/07/10 11:33:09;;;;;;;4.50;3.40;;;;;;;30.09;nan;-24648.00;4980447;28;20195;-59
2022/07/10 11:35:35;;;;;;;5.25;3.80;;;;;;;29.85;nan;-24641.59;4983520;28;20224;-59
2022/07/10 11:38:01;;;;;;;4.57;3.63;;;;;;;29.88;nan;-24642.41;4978989;28;20219;-59
2022/07/10 11:40:27;;;;;;;4.40;3.45;;;;;;;30.10;nan;-24648.41;4981653;28;20191;-60
2022/07/10 11:42:57;;;;;;;5.78;3.85;;;;;;;30.17;nan;-24650.19;4979854;28;20591;-59
2022/07/10 11:45:23;;;;;;;5.53;3.80;;;;;;;30.27;nan;-24652.91;4982764;28;20180;-58
2022/07/10 11:47:49;;;;;;;5.28;3.40;;;;;;;30.13;nan;-24649.22;4976563;28;20258;-60
2022/07/10 11:50:14;;;;;;;4.18;3.17;;;;;;;30.33;nan;-24654.53;4978741;28;20557;-59
2022/07/10 11:52:40;;;;;;;5.50;3.75;;;;;;;29.77;nan;-24639.53;4976828;28;20184;-59